createdAt,value
2023-10-07T00:00:41.587Z,3.40
2023-10-07T00:03:08.273Z,4.00
2023-10-07T00:05:36.879Z,4.07
2023-10-07T00:08:21.327Z,4.15
2023-10-07T00:10:51.385Z,3.75
2023-10-07T00:13:21.293Z,4.10
2023-10-07T00:15:50.575Z,4.10
2023-10-07T00:18:19.325Z,4.22
2023-10-07T00:20:51.804Z,4.25
2023-10-07T00:23:23.196Z,4.00
2023-10-07T00:25:52.735Z,4.10
2023-10-07T00:28:20.718Z,4.40
2023-10-07T00:30:47.593Z,4.40
2023-10-07T00:33:15.606Z,4.45
2023-10-07T00:35:43.598Z,4.60
2023-10-07T00:38:16.336Z,4.50
2023-10-07T00:40:55.937Z,4.40
2023-10-07T00:43:32.535Z,4.10
2023-10-07T00:46:12.320Z,4.15
2023-10-07T00:48:46.424Z,4.45
2023-10-07T00:51:13.868Z,4.57
2023-10-07T00:53:46.653Z,4.83
2023-10-07T00:56:17.494Z,4.68
2023-10-07T00:58:47.525Z,4.38
2023-10-07T01:01:14.737Z,4.85
2023-10-07T01:03:50.528Z,5.82
2023-10-07T01:06:26.591Z,4.80
2023-10-07T01:09:09.327Z,4.53
2023-10-07T01:11:41.180Z,5.03
2023-10-07T01:14:13.154Z,5.00
2023-10-07T01:16:46.959Z,4.65
2023-10-07T01:19:18.939Z,4.60
2023-10-07T01:22:12.273Z,4.85
2023-10-07T01:24:39.761Z,5.45
2023-10-07T01:27:30.871Z,4.82
2023-10-07T01:30:13.976Z,4.95
2023-10-07T01:32:50.108Z,5.30
2023-10-07T01:35:26.282Z,5.00
2023-10-07T01:38:08.568Z,5.05
2023-10-07T01:40:56.537Z,4.90
2023-10-07T01:43:25.121Z,5.05
2023-10-07T01:45:53.943Z,4.73
2023-10-07T01:48:21.464Z,5.35
2023-10-07T01:50:48.414Z,4.82
2023-10-07T01:53:17.926Z,5.13
2023-10-07T01:55:44.985Z,5.45
2023-10-07T01:58:15.553Z,4.90
2023-10-07T02:00:46.030Z,4.47
2023-10-07T02:03:25.028Z,4.50
2023-10-07T02:05:52.555Z,5.13
2023-10-07T02:08:23.982Z,4.88
2023-10-07T02:10:51.487Z,4.60
2023-10-07T02:13:20.762Z,4.97
2023-10-07T02:15:48.981Z,4.88
2023-10-07T02:18:18.577Z,4.57
2023-10-07T02:21:08.070Z,4.57
2023-10-07T02:23:39.007Z,4.57
2023-10-07T02:26:16.361Z,4.45
2023-10-07T02:28:53.040Z,4.88
2023-10-07T02:31:25.468Z,4.60
2023-10-07T02:33:58.983Z,4.53
2023-10-07T02:36:39.302Z,4.30
2023-10-07T02:39:25.735Z,4.00
2023-10-07T02:41:52.487Z,4.25
2023-10-07T02:44:29.137Z,3.95
2023-10-07T02:46:57.606Z,3.67
2023-10-07T02:49:26.840Z,3.33
2023-10-07T02:51:59.174Z,3.25
2023-10-07T02:54:34.179Z,3.72
2023-10-07T02:57:22.834Z,3.40
2023-10-07T02:59:55.115Z,3.83
2023-10-07T03:02:38.507Z,3.63
2023-10-07T03:05:11.446Z,3.40
2023-10-07T03:07:42.839Z,3.65
2023-10-07T03:10:28.820Z,3.70
2023-10-07T03:12:58.566Z,4.13
2023-10-07T03:15:34.502Z,3.60
2023-10-07T03:18:01.617Z,3.95
2023-10-07T03:20:32.695Z,3.70
2023-10-07T03:23:15.435Z,3.83
2023-10-07T03:25:54.568Z,3.53
2023-10-07T03:28:31.947Z,3.90
2023-10-07T03:30:58.444Z,3.65
2023-10-07T03:33:45.256Z,4.07
2023-10-07T03:36:22.205Z,3.60
2023-10-07T03:38:56.466Z,3.55
2023-10-07T03:41:24.348Z,4.10
2023-10-07T03:43:52.063Z,3.70
2023-10-07T03:46:19.103Z,3.78
2023-10-07T03:48:54.746Z,3.40
2023-10-07T03:51:23.400Z,4.93
2023-10-07T03:53:56.394Z,3.93
2023-10-07T03:56:24.300Z,3.30
2023-10-07T03:58:50.835Z,4.05
2023-10-07T04:01:20.296Z,3.60
2023-10-07T04:03:53.547Z,3.65
2023-10-07T04:06:22.149Z,4.20
2023-10-07T04:08:55.655Z,3.75
2023-10-07T04:11:29.252Z,3.70
2023-10-07T04:13:57.265Z,3.20
2023-10-07T04:16:25.769Z,3.05
2023-10-07T04:18:54.298Z,3.17
2023-10-07T04:21:25.875Z,3.10
2023-10-07T04:23:52.342Z,2.70
2023-10-07T04:26:21.681Z,2.78
2023-10-07T04:28:54.557Z,2.78
2023-10-07T04:31:30.670Z,2.97
2023-10-07T04:34:02.751Z,3.28
2023-10-07T04:36:40.437Z,3.00
2023-10-07T04:39:17.976Z,2.75
2023-10-07T04:41:44.466Z,2.72
2023-10-07T04:44:28.439Z,2.90
2023-10-07T04:46:58.064Z,3.08
2023-10-07T04:49:37.180Z,2.92
2023-10-07T04:52:06.455Z,2.92
2023-10-07T04:54:36.952Z,2.80
2023-10-07T04:57:11.234Z,3.27
2023-10-07T04:59:46.647Z,3.25
2023-10-07T05:02:14.097Z,3.30
2023-10-07T05:04:42.973Z,3.25
2023-10-07T05:07:11.868Z,3.00
2023-10-07T05:09:39.649Z,3.00
2023-10-07T05:12:07.948Z,3.10
2023-10-07T05:14:36.522Z,3.10
2023-10-07T05:17:03.431Z,3.00
2023-10-07T05:19:31.638Z,2.92
2023-10-07T05:22:05.686Z,3.17
2023-10-07T05:24:34.163Z,3.00
2023-10-07T05:27:01.507Z,3.28
2023-10-07T05:29:29.861Z,2.97
2023-10-07T05:31:57.796Z,3.28
2023-10-07T05:34:31.245Z,3.20
2023-10-07T05:37:03.792Z,3.38
2023-10-07T05:39:30.300Z,3.38
2023-10-07T05:41:57.613Z,2.92
2023-10-07T05:44:24.171Z,2.80
2023-10-07T05:46:51.785Z,3.60
2023-10-07T05:49:19.437Z,3.25
2023-10-07T05:51:45.913Z,2.97
2023-10-07T05:54:12.587Z,3.20
2023-10-07T05:56:39.234Z,2.97
2023-10-07T05:59:07.940Z,2.70
2023-10-07T06:01:35.194Z,3.28
2023-10-07T06:04:01.942Z,2.80
2023-10-07T06:06:31.300Z,2.53
2023-10-07T06:09:01.821Z,2.35
2023-10-07T06:11:33.226Z,3.00
2023-10-07T06:14:00.567Z,3.25
2023-10-07T06:16:27.246Z,3.25
2023-10-07T06:18:55.166Z,2.80
2023-10-07T06:21:28.643Z,2.53
2023-10-07T06:23:59.129Z,2.90
2023-10-07T06:26:26.290Z,2.80
2023-10-07T06:28:52.879Z,2.47
2023-10-07T06:31:24.087Z,2.72
2023-10-07T06:34:04.895Z,3.20
2023-10-07T06:36:33.093Z,3.03
2023-10-07T06:39:02.449Z,3.08
2023-10-07T06:41:30.348Z,2.95
2023-10-07T06:44:01.046Z,3.30
2023-10-07T06:46:30.697Z,3.28
2023-10-07T06:48:57.494Z,3.30
2023-10-07T06:51:30.765Z,3.30
2023-10-07T06:54:00.072Z,3.25
2023-10-07T06:56:27.830Z,3.13
2023-10-07T06:58:55.268Z,3.63
2023-10-07T07:01:38.865Z,3.40
2023-10-07T07:04:12.138Z,3.40
2023-10-07T07:06:44.128Z,3.53
2023-10-07T07:09:33.811Z,4.03
2023-10-07T07:12:04.792Z,3.90
2023-10-07T07:14:31.979Z,3.70
2023-10-07T07:17:19.067Z,3.97
2023-10-07T07:19:45.743Z,3.92
2023-10-07T07:22:17.095Z,3.88
2023-10-07T07:24:43.589Z,4.20
2023-10-07T07:27:10.289Z,4.43
2023-10-07T07:29:37.115Z,4.20
2023-10-07T07:32:05.827Z,4.07
2023-10-07T07:34:37.951Z,4.10
2023-10-07T07:37:04.821Z,4.35
2023-10-07T07:39:32.115Z,4.20
2023-10-07T07:42:23.822Z,3.67
2023-10-07T07:44:59.119Z,4.25
2023-10-07T07:47:32.304Z,4.22
2023-10-07T07:50:07.630Z,4.07
2023-10-07T07:52:34.324Z,3.83
2023-10-07T07:55:00.745Z,3.80
2023-10-07T07:57:29.202Z,4.45
2023-10-07T07:59:55.738Z,3.80
2023-10-07T08:02:25.460Z,4.45
2023-10-07T08:04:52.788Z,4.00
2023-10-07T08:07:25.987Z,4.40
2023-10-07T08:09:54.377Z,4.35
2023-10-07T08:12:29.461Z,4.25
2023-10-07T08:15:00.025Z,4.07
2023-10-07T08:17:30.516Z,3.93
2023-10-07T08:19:59.384Z,3.80
2023-10-07T08:22:28.723Z,3.97
2023-10-07T08:25:01.563Z,4.15
2023-10-07T08:27:44.985Z,4.00
2023-10-07T08:30:15.849Z,3.80
2023-10-07T08:32:48.633Z,3.50
2023-10-07T08:35:18.438Z,3.58
2023-10-07T08:37:48.742Z,4.30
2023-10-07T08:40:27.463Z,3.38
2023-10-07T08:42:59.999Z,3.53
2023-10-07T08:45:32.149Z,2.47
2023-10-07T08:48:28.478Z,2.97
2023-10-07T08:50:59.701Z,2.80
2023-10-07T08:53:27.792Z,2.60
2023-10-07T08:55:56.067Z,2.70
2023-10-07T08:58:27.285Z,2.47
2023-10-07T09:00:56.445Z,2.70
2023-10-07T09:03:27.838Z,2.70
2023-10-07T09:05:57.080Z,2.80
2023-10-07T09:08:24.009Z,2.77
2023-10-07T09:10:56.692Z,2.50
2023-10-07T09:13:30.750Z,2.60
2023-10-07T09:16:08.275Z,2.70
2023-10-07T09:18:43.382Z,2.95
2023-10-07T09:21:13.107Z,2.60
2023-10-07T09:23:48.668Z,2.53
2023-10-07T09:26:35.148Z,2.88
2023-10-07T09:29:28.987Z,2.75
2023-10-07T09:31:59.027Z,3.28
2023-10-07T09:34:52.515Z,3.10
2023-10-07T09:37:22.349Z,2.72
2023-10-07T09:39:55.883Z,2.80
2023-10-07T09:42:28.372Z,2.95
2023-10-07T09:45:10.876Z,2.85
2023-10-07T09:47:40.344Z,2.10
2023-10-07T09:50:12.128Z,2.92
2023-10-07T09:52:43.385Z,3.08
2023-10-07T09:55:29.709Z,2.58
2023-10-07T09:58:18.715Z,2.95
2023-10-07T10:01:06.583Z,2.90
2023-10-07T10:04:23.436Z,2.97
2023-10-07T10:07:07.184Z,2.70
2023-10-07T10:09:53.150Z,3.20
2023-10-07T10:12:20.103Z,2.80
2023-10-07T10:15:18.673Z,2.77
2023-10-07T10:17:54.469Z,2.60
2023-10-07T10:20:28.990Z,3.00
2023-10-07T10:23:00.605Z,3.20
2023-10-07T10:25:37.343Z,2.80
2023-10-07T10:28:04.794Z,2.57
2023-10-07T10:30:31.356Z,2.78
2023-10-07T10:33:02.011Z,2.60
2023-10-07T10:35:30.497Z,3.00
2023-10-07T10:37:58.036Z,3.38
2023-10-07T10:40:25.448Z,2.80
2023-10-07T10:42:52.125Z,2.70
2023-10-07T10:45:23.170Z,2.90
2023-10-07T10:47:54.455Z,2.45
2023-10-07T10:50:30.059Z,3.03
2023-10-07T10:52:59.939Z,2.70
2023-10-07T10:55:34.380Z,2.60
2023-10-07T10:58:01.287Z,2.30
2023-10-07T11:00:29.757Z,2.83
2023-10-07T11:02:56.929Z,2.65
2023-10-07T11:05:23.754Z,2.50
2023-10-07T11:07:51.899Z,2.80
2023-10-07T11:10:23.814Z,2.42
2023-10-07T11:12:53.905Z,2.90
2023-10-07T11:15:28.343Z,2.80
2023-10-07T11:17:57.305Z,2.60
2023-10-07T11:20:25.854Z,2.92
2023-10-07T11:22:54.595Z,2.95
2023-10-07T11:25:25.674Z,2.65
2023-10-07T11:27:55.318Z,2.72
2023-10-07T11:30:23.142Z,2.40
2023-10-07T11:32:49.748Z,2.15
2023-10-07T11:35:20.954Z,2.60
2023-10-07T11:37:54.693Z,2.60
2023-10-07T11:40:21.385Z,3.03
2023-10-07T11:42:47.901Z,3.10
2023-10-07T11:45:14.350Z,2.80
2023-10-07T11:47:43.008Z,3.08
2023-10-07T11:50:10.310Z,2.50
2023-10-07T11:52:38.809Z,2.65
2023-10-07T11:55:08.978Z,3.07
2023-10-07T11:57:37.422Z,2.85
2023-10-07T12:00:10.351Z,3.20
2023-10-07T12:02:37.072Z,3.40
2023-10-07T12:05:06.534Z,3.00
2023-10-07T12:07:33.044Z,3.20
2023-10-07T12:09:59.487Z,2.97
2023-10-07T12:12:26.006Z,3.35
2023-10-07T12:14:52.499Z,3.15
2023-10-07T12:17:18.945Z,3.05
2023-10-07T12:19:45.568Z,3.50
2023-10-07T12:22:14.531Z,3.28
2023-10-07T12:24:43.394Z,3.20
2023-10-07T12:27:12.134Z,3.25
2023-10-07T12:29:40.262Z,3.45
2023-10-07T12:32:06.807Z,3.33
2023-10-07T12:34:33.327Z,2.85
2023-10-07T12:36:59.763Z,3.55
2023-10-07T12:39:31.722Z,3.15
2023-10-07T12:41:58.244Z,2.78
2023-10-07T12:44:26.429Z,3.37
2023-10-07T12:46:55.311Z,3.40
2023-10-07T12:49:23.755Z,3.60
2023-10-07T12:51:50.220Z,3.40
2023-10-07T12:54:18.309Z,3.10
2023-10-07T12:56:45.413Z,3.30
2023-10-07T12:59:23.261Z,3.17
2023-10-07T13:01:53.205Z,3.50
2023-10-07T13:04:21.009Z,3.55
2023-10-07T13:06:52.663Z,3.53
2023-10-07T13:09:19.089Z,3.47
2023-10-07T13:11:47.093Z,3.50
2023-10-07T13:14:14.010Z,3.10
2023-10-07T13:16:46.578Z,3.38
2023-10-07T13:19:15.162Z,2.88
2023-10-07T13:21:42.639Z,3.00
2023-10-07T13:24:09.710Z,3.33
2023-10-07T13:26:36.891Z,3.50
2023-10-07T13:29:11.677Z,3.80
2023-10-07T13:31:39.943Z,3.28
2023-10-07T13:34:09.814Z,3.57
2023-10-07T13:36:42.542Z,3.50
2023-10-07T13:39:18.739Z,3.90
2023-10-07T13:41:46.524Z,3.80
2023-10-07T13:44:17.711Z,3.65
2023-10-07T13:46:45.674Z,3.53
2023-10-07T13:49:16.361Z,3.20
2023-10-07T13:51:46.045Z,3.53
2023-10-07T13:54:23.998Z,3.13
2023-10-07T13:57:03.520Z,3.28
2023-10-07T13:59:30.428Z,3.37
2023-10-07T14:01:57.360Z,3.30
2023-10-07T14:04:26.848Z,3.13
2023-10-07T14:07:01.640Z,3.70
2023-10-07T14:09:30.538Z,3.50
2023-10-07T14:11:56.996Z,3.70
2023-10-07T14:14:24.442Z,2.90
2023-10-07T14:16:57.368Z,3.90
2023-10-07T14:19:24.048Z,3.97
2023-10-07T14:21:51.416Z,3.88
2023-10-07T14:24:18.002Z,3.77
2023-10-07T14:26:47.026Z,3.35
2023-10-07T14:29:13.653Z,3.78
2023-10-07T14:31:44.884Z,3.60
2023-10-07T14:34:13.236Z,3.92
2023-10-07T14:36:41.426Z,3.93
2023-10-07T14:39:14.220Z,3.90
2023-10-07T14:41:42.732Z,3.35
2023-10-07T14:44:10.204Z,3.88
2023-10-07T14:46:44.292Z,3.50
2023-10-07T14:49:11.620Z,3.60
2023-10-07T14:51:38.249Z,4.00
2023-10-07T14:54:05.083Z,3.72
2023-10-07T14:56:31.700Z,3.90
2023-10-07T14:58:58.491Z,3.92
2023-10-07T15:01:25.096Z,3.90
2023-10-07T15:03:52.749Z,4.30
2023-10-07T15:06:22.287Z,4.47
2023-10-07T15:08:50.054Z,4.65
2023-10-07T15:11:19.196Z,3.85
2023-10-07T15:13:46.921Z,3.77
2023-10-07T15:16:13.683Z,3.70
2023-10-07T15:18:50.324Z,4.15
2023-10-07T15:21:18.375Z,4.10
2023-10-07T15:23:45.814Z,4.53
2023-10-07T15:26:14.528Z,5.27
2023-10-07T15:28:41.305Z,5.03
2023-10-07T15:31:09.405Z,5.97
2023-10-07T15:33:54.479Z,4.55
2023-10-07T15:36:21.412Z,4.38
2023-10-07T15:38:50.288Z,4.40
2023-10-07T15:41:17.583Z,4.10
2023-10-07T15:43:44.441Z,3.95
2023-10-07T15:46:10.959Z,4.32
2023-10-07T15:48:37.530Z,3.75
2023-10-07T15:51:06.566Z,3.67
2023-10-07T15:53:34.601Z,3.70
2023-10-07T15:56:07.645Z,4.10
2023-10-07T15:58:40.627Z,4.05
2023-10-07T16:01:11.135Z,5.05
2023-10-07T16:03:38.784Z,3.93
2023-10-07T16:06:06.620Z,4.40
2023-10-07T16:08:38.078Z,3.90
2023-10-07T16:11:06.083Z,4.00
2023-10-07T16:13:33.644Z,4.00
2023-10-07T16:16:06.659Z,4.00
2023-10-07T16:18:41.241Z,3.85
2023-10-07T16:21:10.970Z,3.80
2023-10-07T16:23:38.737Z,3.97
2023-10-07T16:26:10.375Z,3.95
2023-10-07T16:28:41.955Z,4.60
2023-10-07T16:31:08.638Z,4.28
2023-10-07T16:33:35.188Z,3.67
2023-10-07T16:36:05.400Z,4.10
2023-10-07T16:38:35.358Z,4.10
2023-10-07T16:41:07.299Z,4.20
2023-10-07T16:43:36.310Z,3.97
2023-10-07T16:46:04.786Z,3.63
2023-10-07T16:48:31.838Z,4.15
2023-10-07T16:51:00.506Z,4.35
2023-10-07T16:53:28.108Z,3.33
2023-10-07T16:55:56.952Z,4.40
2023-10-07T16:58:27.741Z,4.68
2023-10-07T17:00:56.134Z,4.45
2023-10-07T17:03:23.707Z,5.07
2023-10-07T17:05:50.831Z,4.17
2023-10-07T17:08:18.604Z,3.78
2023-10-07T17:10:46.638Z,4.50
2023-10-07T17:13:13.575Z,5.22
2023-10-07T17:15:44.482Z,14.20
2023-10-07T17:18:12.378Z,6.27
2023-10-07T17:20:40.737Z,6.53
2023-10-07T17:23:09.251Z,6.10
2023-10-07T17:25:36.554Z,5.45
2023-10-07T17:28:04.766Z,13.38
2023-10-07T17:30:32.394Z,6.47
2023-10-07T17:33:00.656Z,7.68
2023-10-07T17:35:29.331Z,5.03
2023-10-07T17:37:57.022Z,10.25
2023-10-07T17:40:23.623Z,17.33
2023-10-07T17:42:57.041Z,7.60
2023-10-07T17:45:23.820Z,7.63
2023-10-07T17:47:53.196Z,5.63
2023-10-07T17:50:20.658Z,11.10
2023-10-07T17:52:48.550Z,5.65
2023-10-07T17:55:15.679Z,4.63
2023-10-07T17:57:43.805Z,5.05
2023-10-07T18:00:11.601Z,3.92
2023-10-07T18:02:38.513Z,5.75
2023-10-07T18:05:08.790Z,4.80
2023-10-07T18:07:35.217Z,6.33
2023-10-07T18:10:01.977Z,4.60
2023-10-07T18:12:28.462Z,5.70
2023-10-07T18:14:54.890Z,4.70
2023-10-07T18:17:21.411Z,4.80
2023-10-07T18:19:47.940Z,4.93
2023-10-07T18:22:14.397Z,6.43
2023-10-07T18:24:40.831Z,5.15
2023-10-07T18:27:07.651Z,4.90
2023-10-07T18:29:34.149Z,4.97
2023-10-07T18:32:00.694Z,4.83
2023-10-07T18:34:27.170Z,5.43
2023-10-07T18:36:53.707Z,5.72
2023-10-07T18:39:20.632Z,5.05
2023-10-07T18:41:47.142Z,5.25
2023-10-07T18:44:14.064Z,5.80
2023-10-07T18:46:42.429Z,4.65
2023-10-07T18:49:09.322Z,4.40
2023-10-07T18:51:36.262Z,4.22
2023-10-07T18:54:05.015Z,4.60
2023-10-07T18:56:31.937Z,5.33
2023-10-07T18:58:58.547Z,4.70
2023-10-07T19:01:26.265Z,4.97
2023-10-07T19:03:52.984Z,4.70
2023-10-07T19:06:19.461Z,4.80
2023-10-07T19:08:45.903Z,4.40
2023-10-07T19:11:15.069Z,4.00
2023-10-07T19:13:42.553Z,5.18
2023-10-07T19:16:10.837Z,4.07
2023-10-07T19:18:38.436Z,5.03
2023-10-07T19:21:05.031Z,5.27
2023-10-07T19:23:31.765Z,5.40
2023-10-07T19:26:06.759Z,5.18
2023-10-07T19:28:33.365Z,4.88
2023-10-07T19:30:59.948Z,4.35
2023-10-07T19:33:26.535Z,5.03
2023-10-07T19:35:54.764Z,4.50
2023-10-07T19:38:21.261Z,4.95
2023-10-07T19:40:51.148Z,4.40
2023-10-07T19:43:17.844Z,5.40
2023-10-07T19:45:44.321Z,5.30
2023-10-07T19:48:10.892Z,5.85
2023-10-07T19:50:37.464Z,5.43
2023-10-07T19:53:04.487Z,5.43
2023-10-07T19:55:31.160Z,5.25
2023-10-07T19:57:57.647Z,4.87
2023-10-07T20:00:25.962Z,8.60
2023-10-07T20:02:52.875Z,5.30
2023-10-07T20:05:21.179Z,4.60
2023-10-07T20:07:51.982Z,4.57
2023-10-07T20:10:18.616Z,4.70
2023-10-07T20:12:45.345Z,4.30
2023-10-07T20:15:12.129Z,4.45
2023-10-07T20:17:40.285Z,4.57
2023-10-07T20:20:07.765Z,4.43
2023-10-07T20:22:34.530Z,5.00
2023-10-07T20:25:03.369Z,4.72
2023-10-07T20:27:29.886Z,4.78
2023-10-07T20:29:57.581Z,4.80
2023-10-07T20:32:24.434Z,4.50
2023-10-07T20:34:51.030Z,4.70
2023-10-07T20:37:20.231Z,4.45
2023-10-07T20:39:48.788Z,4.30
2023-10-07T20:42:16.688Z,4.47
2023-10-07T20:44:43.238Z,5.10
2023-10-07T20:47:10.610Z,5.00
2023-10-07T20:49:40.823Z,4.25
2023-10-07T20:52:07.356Z,4.55
2023-10-07T20:54:33.872Z,4.30
2023-10-07T20:57:01.085Z,3.40
2023-10-07T20:59:28.899Z,3.83
2023-10-07T21:01:57.843Z,4.32
2023-10-07T21:04:24.990Z,3.33
2023-10-07T21:06:51.579Z,4.38
2023-10-07T21:09:18.094Z,4.38
2023-10-07T21:11:45.195Z,4.30
2023-10-07T21:14:11.795Z,4.60
2023-10-07T21:16:39.376Z,4.25
2023-10-07T21:19:07.070Z,4.32
2023-10-07T21:21:33.586Z,4.78
2023-10-07T21:24:00.211Z,4.47
2023-10-07T21:26:27.786Z,4.07
2023-10-07T21:28:56.209Z,4.82
2023-10-07T21:31:26.463Z,4.10
2023-10-07T21:33:53.582Z,4.20
2023-10-07T21:36:20.086Z,3.70
2023-10-07T21:38:46.607Z,3.63
2023-10-07T21:41:14.468Z,3.50
2023-10-07T21:43:41.687Z,4.20
2023-10-07T21:46:11.190Z,4.00
2023-10-07T21:48:38.128Z,3.87
2023-10-07T21:51:11.040Z,3.92
2023-10-07T21:53:37.993Z,3.67
2023-10-07T21:56:07.352Z,3.90
2023-10-07T21:58:33.912Z,4.07
2023-10-07T22:01:09.360Z,4.00
2023-10-07T22:03:40.251Z,4.07
2023-10-07T22:06:07.143Z,4.00
2023-10-07T22:08:34.022Z,3.80
2023-10-07T22:11:00.871Z,4.13
2023-10-07T22:13:28.373Z,4.30
2023-10-07T22:15:59.366Z,4.32
2023-10-07T22:18:28.144Z,4.03
2023-10-07T22:20:56.418Z,4.00
2023-10-07T22:23:24.294Z,4.25
2023-10-07T22:25:53.110Z,4.10
2023-10-07T22:28:20.999Z,4.28
2023-10-07T22:30:51.915Z,4.70
2023-10-07T22:33:26.381Z,4.20
2023-10-07T22:36:00.715Z,4.53
2023-10-07T22:38:27.582Z,4.03
2023-10-07T22:41:00.049Z,3.80
2023-10-07T22:43:36.244Z,4.45
2023-10-07T22:46:08.148Z,3.88
2023-10-07T22:48:36.817Z,4.10
2023-10-07T22:51:24.617Z,3.93
2023-10-07T22:53:54.732Z,3.90
2023-10-07T22:56:21.292Z,4.53
2023-10-07T22:58:49.387Z,4.07
2023-10-07T23:01:32.900Z,4.30
2023-10-07T23:04:14.368Z,4.53
2023-10-07T23:06:42.771Z,4.20
2023-10-07T23:09:22.797Z,3.80
2023-10-07T23:11:49.766Z,4.07
2023-10-07T23:14:19.599Z,4.00
2023-10-07T23:16:53.824Z,4.70
2023-10-07T23:19:22.120Z,4.03
2023-10-07T23:22:09.663Z,3.90
2023-10-07T23:24:36.078Z,3.70
2023-10-07T23:27:07.429Z,4.20
2023-10-07T23:29:36.685Z,4.13
2023-10-07T23:32:04.887Z,3.97
2023-10-07T23:34:36.657Z,3.70
2023-10-07T23:37:04.406Z,4.47
2023-10-07T23:39:37.935Z,4.03
2023-10-07T23:42:12.784Z,3.97
2023-10-07T23:44:39.714Z,4.35
2023-10-07T23:47:09.475Z,4.68
2023-10-07T23:49:39.700Z,4.18
2023-10-07T23:52:10.919Z,4.03
2023-10-07T23:54:38.713Z,4.40
2023-10-07T23:57:12.474Z,4.60
2023-10-07T23:59:40.202Z,4.13
